Terminal Aerodrome Forecast
Issued by NWS Blacksburg, VA

Current Version | Previous Version | Graphics & Text | Print | Product List | Glossary Off
Versions: 1 2 3 4 5 6 7 8 9 10 11 12 13 14 15 16 17 18 19 20 21 22 23

000
FTUS41 KRNK 311139
TAFBLF
TAF
KBLF 311139Z 3112/0112 18003KT P6SM BKN035
     FM311500 22007KT P6SM SCT030 OVC070
     FM311800 25006KT 6SM -RA OVC025
     FM312100 27004KT 4SM -RA BR OVC015
     FM010000 27003KT 2SM RA BR OVC007
     FM010300 28004KT 1SM RA BR OVC004
     FM010800 29006KT 1/2SM SN FG OVC002=

USA.gov is the U.S. government's official web portal to all federal, state and local government web resources and services.